createdAt,value
2022-09-18T00:00:53.073Z,977.97
2022-09-18T00:07:25.453Z,977.97
2022-09-18T00:13:53.057Z,977.94
2022-09-18T00:20:21.737Z,977.88
2022-09-18T00:26:53.029Z,977.78
2022-09-18T00:33:37.346Z,977.77
2022-09-18T00:40:08.768Z,977.75
2022-09-18T00:46:51.219Z,977.83
2022-09-18T00:53:37.309Z,977.93
2022-09-18T01:00:18.163Z,977.94
2022-09-18T01:06:53.455Z,977.93
2022-09-18T01:14:05.966Z,977.98
2022-09-18T01:21:13.997Z,977.88
2022-09-18T01:28:24.633Z,977.83
2022-09-18T01:35:41.328Z,977.77
2022-09-18T01:42:44.083Z,977.88
2022-09-18T01:49:34.695Z,977.87
2022-09-18T01:56:33.008Z,977.85
2022-09-18T02:03:22.015Z,977.74
2022-09-18T02:10:23.300Z,977.74
2022-09-18T02:17:18.968Z,977.76
2022-09-18T02:24:25.217Z,977.62
2022-09-18T02:31:20.095Z,977.53
2022-09-18T02:38:03.714Z,977.65
2022-09-18T02:45:10.898Z,977.64
2022-09-18T02:52:17.802Z,977.57
2022-09-18T02:59:32.074Z,977.62
2022-09-18T03:06:14.332Z,977.56
2022-09-18T03:12:48.976Z,977.52
2022-09-18T03:19:15.504Z,977.47
2022-09-18T03:25:45.667Z,977.47
2022-09-18T03:32:17.025Z,977.5
2022-09-18T03:38:47.187Z,977.54
2022-09-18T03:45:12.799Z,977.55
2022-09-18T03:51:35.312Z,977.54
2022-09-18T03:58:09.626Z,977.51
2022-09-18T04:04:41.752Z,977.5
2022-09-18T04:11:07.267Z,977.48
2022-09-18T04:17:35.562Z,977.52
2022-09-18T04:24:05.266Z,977.56
2022-09-18T04:30:28.849Z,977.59
2022-09-18T04:37:11.152Z,977.51
2022-09-18T04:43:34.156Z,977.49
2022-09-18T04:49:54.967Z,977.51
2022-09-18T04:56:17.405Z,977.45
2022-09-18T05:02:41.101Z,977.47
2022-09-18T05:09:05.121Z,977.47
2022-09-18T05:15:32.197Z,977.55
2022-09-18T05:22:03.798Z,977.57
2022-09-18T05:28:32.818Z,977.6
2022-09-18T05:34:55.560Z,977.66
2022-09-18T05:41:28.003Z,977.61
2022-09-18T05:47:57.101Z,977.65
2022-09-18T05:54:29.526Z,977.62
2022-09-18T06:01:08.686Z,977.68
2022-09-18T06:07:31.814Z,977.73
2022-09-18T06:14:00.781Z,977.7
2022-09-18T06:20:27.002Z,977.75
2022-09-18T06:26:53.886Z,977.82
2022-09-18T06:33:23.275Z,977.83
2022-09-18T06:40:01.227Z,977.88
2022-09-18T06:46:30.621Z,977.84
2022-09-18T06:53:02.399Z,977.76
2022-09-18T06:59:28.759Z,977.81
2022-09-18T07:06:05.101Z,977.82
2022-09-18T07:12:29.403Z,977.78
2022-09-18T07:18:57.195Z,977.94
2022-09-18T07:25:35.032Z,977.91
2022-09-18T07:32:06.654Z,977.99
2022-09-18T07:38:35.049Z,978.02
2022-09-18T07:45:05.734Z,978.02
2022-09-18T07:51:28.282Z,978.05
2022-09-18T07:58:03.390Z,978
2022-09-18T08:04:31.904Z,978.01
2022-09-18T08:10:57.416Z,977.94
2022-09-18T08:17:26.515Z,977.88
2022-09-18T08:23:52.790Z,977.85
2022-09-18T08:30:16.320Z,977.89
2022-09-18T08:36:47.067Z,977.94
2022-09-18T08:43:22.025Z,977.88
2022-09-18T08:50:36.344Z,977.91
2022-09-18T08:57:28.293Z,977.98
2022-09-18T09:04:29.208Z,977.97
2022-09-18T09:11:32.393Z,977.98
2022-09-18T09:18:39.091Z,978.01
2022-09-18T09:25:49.985Z,977.95
2022-09-18T09:32:59.282Z,977.86
2022-09-18T09:40:07.587Z,977.72
2022-09-18T09:47:16.596Z,977.71
2022-09-18T09:54:21.519Z,977.82
2022-09-18T10:01:30.552Z,977.8
2022-09-18T10:08:41.993Z,977.71
2022-09-18T10:15:53.807Z,977.75
2022-09-18T10:22:40.246Z,977.8
2022-09-18T10:29:18.578Z,977.8
2022-09-18T10:35:57.802Z,977.68
2022-09-18T10:42:44.240Z,977.69
2022-09-18T10:49:31.146Z,977.66
2022-09-18T10:56:22.662Z,977.68
2022-09-18T11:03:17.235Z,977.63
2022-09-18T11:10:07.125Z,977.59
2022-09-18T11:17:03.414Z,977.56
2022-09-18T11:23:50.632Z,977.57
2022-09-18T11:30:43.616Z,977.44
2022-09-18T11:38:01.272Z,977.37
2022-09-18T11:44:59.161Z,977.29
2022-09-18T11:52:11.182Z,977.32
2022-09-18T11:59:25.927Z,977.41
2022-09-18T12:06:30.067Z,977.37
2022-09-18T12:13:38.260Z,977.26
2022-09-18T12:20:39.026Z,977.29
2022-09-18T12:27:37.811Z,977.28
2022-09-18T12:34:54.734Z,977.25
2022-09-18T12:42:08.729Z,977.08
2022-09-18T12:49:07.525Z,977.02
2022-09-18T12:56:07.284Z,976.88
2022-09-18T13:03:11.379Z,976.72
2022-09-18T13:10:26.775Z,976.63
2022-09-18T13:17:29.566Z,976.65
2022-09-18T13:24:33.688Z,976.48
2022-09-18T13:31:12.434Z,976.56
2022-09-18T13:38:03.191Z,976.47
2022-09-18T13:45:07.396Z,976.49
2022-09-18T13:52:04.946Z,976.46
2022-09-18T13:58:56.242Z,976.48
2022-09-18T14:05:43.463Z,976.47
2022-09-18T14:12:45.723Z,976.5
2022-09-18T14:19:41.595Z,976.54
2022-09-18T14:26:25.798Z,976.41
2022-09-18T14:33:21.211Z,976.45
2022-09-18T14:40:11.720Z,976.4
2022-09-18T14:46:59.329Z,976.33
2022-09-18T14:53:47.215Z,976.29
2022-09-18T15:00:36.566Z,976.15
2022-09-18T15:07:31.811Z,976
2022-09-18T15:14:17.631Z,975.94
2022-09-18T15:21:00.932Z,975.89
2022-09-18T15:27:59.530Z,975.86
2022-09-18T15:34:46.540Z,975.91
2022-09-18T15:41:49.423Z,975.85
2022-09-18T15:48:51.411Z,975.85
2022-09-18T15:55:30.160Z,975.85
2022-09-18T16:02:23.369Z,975.8
2022-09-18T16:09:33.964Z,975.74
2022-09-18T16:16:36.191Z,975.83
2022-09-18T16:23:32.310Z,975.67
2022-09-18T16:30:27.541Z,975.73
2022-09-18T16:37:03.616Z,975.65
2022-09-18T16:43:40.245Z,975.61
2022-09-18T16:50:21.502Z,975.66
2022-09-18T16:56:49.754Z,975.66
2022-09-18T17:03:27.945Z,975.63
2022-09-18T17:10:01.982Z,975.67
2022-09-18T17:16:44.439Z,975.7
2022-09-18T17:23:12.031Z,975.61
2022-09-18T17:29:43.881Z,975.56
2022-09-18T17:36:18.913Z,975.61
2022-09-18T17:42:53.653Z,975.64
2022-09-18T17:49:26.214Z,975.61
2022-09-18T17:55:59.345Z,975.61
2022-09-18T18:02:29.449Z,975.72
2022-09-18T18:08:58.952Z,975.67
2022-09-18T18:15:22.747Z,975.7
2022-09-18T18:21:46.144Z,975.69
2022-09-18T18:28:13.733Z,975.73
2022-09-18T18:34:45.093Z,975.7
2022-09-18T18:41:13.397Z,975.75
2022-09-18T18:47:54.677Z,975.77
2022-09-18T18:54:20.336Z,975.73
2022-09-18T19:00:53.917Z,975.79
2022-09-18T19:07:30.508Z,975.79
2022-09-18T19:13:55.356Z,975.8
2022-09-18T19:20:17.120Z,975.76
2022-09-18T19:26:46.722Z,975.86
2022-09-18T19:33:30.175Z,975.93
2022-09-18T19:39:57.622Z,976
2022-09-18T19:46:57.916Z,976.07
2022-09-18T19:53:37.684Z,976.13
2022-09-18T20:00:07.374Z,976.26
2022-09-18T20:06:37.317Z,976.37
2022-09-18T20:13:11.395Z,976.42
2022-09-18T20:19:47.756Z,976.47
2022-09-18T20:26:16.454Z,976.59
2022-09-18T20:32:45.738Z,976.55
2022-09-18T20:39:20.282Z,976.44
2022-09-18T20:45:52.817Z,976.46
2022-09-18T20:52:31.423Z,976.51
2022-09-18T20:59:09.488Z,976.6
2022-09-18T21:06:21.716Z,977.07
2022-09-18T21:12:52.469Z,977.33
2022-09-18T21:19:20.395Z,977.45
2022-09-18T21:25:49.696Z,977.47
2022-09-18T21:32:32.921Z,977.45
2022-09-18T21:39:05.681Z,977.43
2022-09-18T21:45:31.563Z,977.34
2022-09-18T21:52:05.431Z,977.36
2022-09-18T21:58:46.232Z,977.28
2022-09-18T22:05:16.738Z,977.25
2022-09-18T22:11:49.998Z,977.45
2022-09-18T22:18:28.322Z,977.44
2022-09-18T22:25:00.858Z,977.63
2022-09-18T22:31:38.714Z,977.72
2022-09-18T22:38:15.458Z,977.76
2022-09-18T22:44:40.987Z,977.77
2022-09-18T22:51:09.919Z,977.94
2022-09-18T22:57:50.075Z,977.96
2022-09-18T23:04:27.601Z,977.97
2022-09-18T23:10:58.290Z,978.05
2022-09-18T23:17:30.355Z,977.95
2022-09-18T23:24:08.824Z,977.79
2022-09-18T23:30:41.931Z,977.93
2022-09-18T23:37:27.482Z,978
2022-09-18T23:44:11.612Z,978.11
2022-09-18T23:50:34.527Z,978.21
2022-09-18T23:56:59.862Z,978.32
